createdAt,value
2023-02-11T00:02:11.195Z,102831.38
2023-02-11T00:07:12.745Z,102836.91
2023-02-11T00:12:15.390Z,102835.13
2023-02-11T00:17:16.992Z,102839.34
2023-02-11T00:22:18.832Z,102846.56
2023-02-11T00:27:20.336Z,102866.75
2023-02-11T00:32:21.782Z,102860.53
2023-02-11T00:37:24.418Z,102883.50
2023-02-11T00:42:25.885Z,102870.69
2023-02-11T00:47:27.587Z,102873.91
2023-02-11T00:52:29.826Z,102888.72
2023-02-11T00:57:31.281Z,102910.25
2023-02-11T01:02:33.446Z,102917.84
2023-02-11T01:07:34.922Z,102942.78
2023-02-11T01:12:36.714Z,102945.47
2023-02-11T01:17:38.248Z,102912.03
2023-02-11T01:22:39.973Z,102884.84
2023-02-11T01:27:41.481Z,102863.25
2023-02-11T01:32:42.967Z,102870.94
2023-02-11T01:37:44.504Z,102881.63
2023-02-11T01:42:48.823Z,102900.22
2023-02-11T01:47:51.474Z,102918.09
2023-02-11T01:52:53.491Z,102883.16
2023-02-11T01:58:00.089Z,102883.25
2023-02-11T02:03:20.247Z,102910.69
2023-02-11T02:08:25.251Z,102918.38
2023-02-11T02:13:32.228Z,102908.69
2023-02-11T02:18:36.705Z,102873.09
2023-02-11T02:24:15.050Z,102862.53
2023-02-11T02:29:54.440Z,102824.69
2023-02-11T02:35:13.709Z,102819.06
2023-02-11T02:40:21.245Z,102839.38
2023-02-11T02:45:22.776Z,102832.44
2023-02-11T02:50:30.377Z,102830.00
2023-02-11T02:55:53.236Z,102836.53
2023-02-11T03:01:03.587Z,102834.47
2023-02-11T03:06:10.436Z,102851.53
2023-02-11T03:11:15.404Z,102823.31
2023-02-11T03:16:24.788Z,102805.41
2023-02-11T03:21:27.865Z,102805.94
2023-02-11T03:26:44.111Z,102786.97
2023-02-11T03:32:11.245Z,102781.88
2023-02-11T03:37:36.509Z,102784.31
2023-02-11T03:42:46.091Z,102784.22
2023-02-11T03:47:54.872Z,102779.13
2023-02-11T03:52:58.686Z,102800.81
2023-02-11T03:58:00.218Z,102812.66
2023-02-11T04:03:01.749Z,102807.09
2023-02-11T04:08:03.455Z,102817.22
2023-02-11T04:13:04.902Z,102805.31
2023-02-11T04:18:06.736Z,102816.38
2023-02-11T04:23:08.253Z,102814.53
2023-02-11T04:28:09.766Z,102800.94
2023-02-11T04:33:11.305Z,102799.00
2023-02-11T04:38:13.304Z,102784.53
2023-02-11T04:43:14.760Z,102798.13
2023-02-11T04:48:16.217Z,102803.69
2023-02-11T04:53:17.671Z,102800.19
2023-02-11T04:58:19.890Z,102775.16
2023-02-11T05:03:21.366Z,102773.16
2023-02-11T05:08:22.844Z,102769.63
2023-02-11T05:13:24.549Z,102771.50
2023-02-11T05:18:26.007Z,102772.75
2023-02-11T05:23:27.448Z,102761.59
2023-02-11T05:28:29.561Z,102760.28
2023-02-11T05:33:31.178Z,102754.25
2023-02-11T05:38:33.398Z,102758.91
2023-02-11T05:43:35.548Z,102757.38
2023-02-11T05:48:37.043Z,102725.88
2023-02-11T05:53:38.512Z,102707.66
2023-02-11T05:58:40.585Z,102727.53
2023-02-11T06:03:42.117Z,102712.41
2023-02-11T06:08:43.577Z,102702.22
2023-02-11T06:13:45.019Z,102702.81
2023-02-11T06:18:46.483Z,102702.09
2023-02-11T06:23:47.968Z,102695.75
2023-02-11T06:28:49.591Z,102690.00
2023-02-11T06:33:51.063Z,102676.25
2023-02-11T06:38:52.615Z,102677.19
2023-02-11T06:43:54.476Z,102683.28
2023-02-11T06:48:56.014Z,102663.78
2023-02-11T06:53:57.471Z,102636.66
2023-02-11T06:58:59.063Z,102624.56
2023-02-11T07:04:00.632Z,102640.78
2023-02-11T07:09:02.308Z,102649.63
2023-02-11T07:14:08.282Z,102652.00
2023-02-11T07:19:09.771Z,102665.22
2023-02-11T07:24:11.637Z,102638.53
2023-02-11T07:29:13.258Z,102655.72
2023-02-11T07:34:14.776Z,102668.94
2023-02-11T07:39:16.392Z,102652.56
2023-02-11T07:44:18.660Z,102640.53
2023-02-11T07:49:20.157Z,102651.66
2023-02-11T07:54:22.014Z,102645.13
2023-02-11T07:59:24.865Z,102628.44
2023-02-11T08:04:26.376Z,102638.94
2023-02-11T08:09:27.920Z,102633.81
2023-02-11T08:14:29.394Z,102651.16
2023-02-11T08:19:32.912Z,102637.66
2023-02-11T08:24:35.564Z,102626.72
2023-02-11T08:29:37.068Z,102617.44
2023-02-11T08:34:39.574Z,102624.97
2023-02-11T08:39:41.043Z,102637.19
2023-02-11T08:44:43.029Z,102645.97
2023-02-11T08:49:44.495Z,102648.34
2023-02-11T08:54:45.953Z,102650.63
2023-02-11T08:59:47.411Z,102679.84
2023-02-11T09:04:48.884Z,102678.47
2023-02-11T09:09:50.399Z,102680.22
2023-02-11T09:14:51.849Z,102688.47
2023-02-11T09:19:53.467Z,102684.69
2023-02-11T09:24:57.476Z,102688.66
2023-02-11T09:29:58.927Z,102686.16
2023-02-11T09:35:00.519Z,102680.44
2023-02-11T09:40:02.116Z,102664.34
2023-02-11T09:45:10.573Z,102694.56
2023-02-11T09:50:16.166Z,102723.44
2023-02-11T09:55:30.469Z,102736.50
2023-02-11T10:00:40.221Z,102753.50
2023-02-11T10:05:41.743Z,102768.31
2023-02-11T10:10:52.626Z,102810.81
2023-02-11T10:16:17.983Z,102815.56
2023-02-11T10:21:46.479Z,102848.97
2023-02-11T10:26:48.962Z,102841.41
2023-02-11T10:31:51.494Z,102888.44
2023-02-11T10:36:53.018Z,102891.00
2023-02-11T10:41:59.205Z,102885.50
2023-02-11T10:47:07.275Z,102919.78
2023-02-11T10:52:20.546Z,102919.28
2023-02-11T10:57:22.664Z,102923.53
2023-02-11T11:02:32.086Z,102910.03
2023-02-11T11:07:34.368Z,102930.22
2023-02-11T11:12:44.843Z,102937.69
2023-02-11T11:17:46.539Z,102962.09
2023-02-11T11:22:50.462Z,102967.72
2023-02-11T11:27:54.269Z,102961.59
2023-02-11T11:32:56.547Z,102928.81
2023-02-11T11:38:03.843Z,102938.88
2023-02-11T11:43:14.213Z,102941.13
2023-02-11T11:48:25.292Z,102962.69
2023-02-11T11:53:48.259Z,102971.88
2023-02-11T11:58:50.707Z,102972.81
2023-02-11T12:04:10.466Z,102996.84
2023-02-11T12:09:49.986Z,102995.78
2023-02-11T12:15:27.049Z,103015.38
2023-02-11T12:21:05.817Z,103005.22
2023-02-11T12:26:18.302Z,103009.38
2023-02-11T12:31:44.730Z,102985.00
2023-02-11T12:37:07.547Z,102997.41
2023-02-11T12:42:57.612Z,102989.28
2023-02-11T12:48:29.851Z,102984.13
2023-02-11T12:54:14.113Z,103026.25
2023-02-11T12:59:29.652Z,103036.91
2023-02-11T13:04:40.170Z,103033.09
2023-02-11T13:09:48.646Z,103009.19
2023-02-11T13:14:54.367Z,103034.88
2023-02-11T13:20:21.050Z,103062.63
2023-02-11T13:25:44.298Z,103046.38
2023-02-11T13:30:52.379Z,103061.09
2023-02-11T13:35:57.090Z,103085.13
2023-02-11T13:41:01.287Z,103086.94
2023-02-11T13:46:05.466Z,103083.53
2023-02-11T13:51:12.315Z,103092.06
2023-02-11T13:56:28.077Z,103119.69
2023-02-11T14:01:41.951Z,103101.78
2023-02-11T14:08:00.411Z,103094.69
2023-02-11T14:13:23.073Z,103078.22
2023-02-11T14:18:52.439Z,103101.00
2023-02-11T14:24:14.335Z,103138.19
2023-02-11T14:29:53.107Z,103153.44
2023-02-11T14:35:20.858Z,103213.09
2023-02-11T14:40:59.118Z,103219.56
2023-02-11T14:46:02.916Z,103188.56
2023-02-11T14:51:15.992Z,103166.88
2023-02-11T14:56:31.031Z,103154.00
2023-02-11T15:01:37.625Z,103152.63
2023-02-11T15:06:42.459Z,103116.31
2023-02-11T15:11:46.790Z,103098.56
2023-02-11T15:16:48.701Z,103095.66
2023-02-11T15:21:51.652Z,103104.38
2023-02-11T15:27:01.408Z,103101.72
2023-02-11T15:32:23.910Z,103133.78
2023-02-11T15:37:30.103Z,103138.34
2023-02-11T15:42:43.856Z,103143.38
2023-02-11T15:47:51.424Z,103119.16
2023-02-11T15:52:55.045Z,103118.41
2023-02-11T15:58:01.641Z,103089.91
2023-02-11T16:03:04.488Z,103097.16
2023-02-11T16:08:29.708Z,103085.47
2023-02-11T16:13:33.631Z,103078.47
2023-02-11T16:18:40.093Z,103062.19
2023-02-11T16:23:44.990Z,103040.19
2023-02-11T16:28:46.966Z,103048.31
2023-02-11T16:33:48.417Z,103058.81
2023-02-11T16:38:49.872Z,103070.09
2023-02-11T16:43:51.409Z,103073.88
2023-02-11T16:48:55.209Z,103068.97
2023-02-11T16:53:56.696Z,103056.25
2023-02-11T16:58:58.156Z,103060.19
2023-02-11T17:03:59.986Z,103050.59
2023-02-11T17:09:01.631Z,103046.16
2023-02-11T17:14:03.115Z,103070.59
2023-02-11T17:19:04.728Z,103068.63
2023-02-11T17:24:06.393Z,103080.63
2023-02-11T17:29:10.236Z,103087.72
2023-02-11T17:34:12.044Z,103090.00
2023-02-11T17:39:13.691Z,103065.44
2023-02-11T17:44:16.351Z,103080.09
2023-02-11T17:49:17.957Z,103073.88
2023-02-11T17:54:20.097Z,103089.22
2023-02-11T17:59:21.631Z,103090.81
2023-02-11T18:04:23.228Z,103093.97
2023-02-11T18:09:25.919Z,103084.06
2023-02-11T18:14:27.418Z,103096.03
2023-02-11T18:19:30.578Z,103071.59
2023-02-11T18:24:32.102Z,103094.75
2023-02-11T18:29:33.709Z,103086.81
2023-02-11T18:34:35.175Z,103049.25
2023-02-11T18:39:36.934Z,103051.19
2023-02-11T18:44:38.391Z,103056.94
2023-02-11T18:49:39.852Z,103047.22
2023-02-11T18:54:41.327Z,103037.50
2023-02-11T18:59:42.956Z,103049.78
2023-02-11T19:04:44.541Z,103060.09
2023-02-11T19:09:45.993Z,103067.56
2023-02-11T19:14:47.447Z,103057.28
2023-02-11T19:19:49.021Z,103077.91
2023-02-11T19:24:50.475Z,103080.44
2023-02-11T19:29:52.001Z,103076.38
2023-02-11T19:34:53.640Z,103079.34
2023-02-11T19:39:55.189Z,103098.03
2023-02-11T19:44:57.275Z,103102.16
2023-02-11T19:49:58.926Z,103118.03
2023-02-11T19:55:00.820Z,103138.16
2023-02-11T20:00:02.283Z,103150.53
2023-02-11T20:05:13.218Z,103180.72
2023-02-11T20:10:14.679Z,103201.78
2023-02-11T20:15:16.157Z,103214.25
2023-02-11T20:20:18.464Z,103201.38
2023-02-11T20:25:19.988Z,103201.63
2023-02-11T20:30:21.746Z,103207.88
2023-02-11T20:35:23.230Z,103204.06
2023-02-11T20:40:24.904Z,103241.81
2023-02-11T20:45:26.362Z,103251.41
2023-02-11T20:50:27.820Z,103277.97
2023-02-11T20:55:29.787Z,103274.25
2023-02-11T21:00:31.322Z,103271.13
2023-02-11T21:05:32.802Z,103305.75
2023-02-11T21:10:34.252Z,103307.41
2023-02-11T21:15:35.721Z,103269.97
2023-02-11T21:20:37.257Z,103247.75
2023-02-11T21:25:38.737Z,103222.28
2023-02-11T21:30:41.310Z,103215.47
2023-02-11T21:35:42.868Z,103235.69
2023-02-11T21:40:44.347Z,103225.22
2023-02-11T21:45:47.821Z,103240.50
2023-02-11T21:50:49.352Z,103243.94
2023-02-11T21:55:51.303Z,103267.09
2023-02-11T22:00:52.931Z,103257.41
2023-02-11T22:05:54.723Z,103236.00
2023-02-11T22:11:05.653Z,103231.47
2023-02-11T22:16:10.618Z,103236.00
2023-02-11T22:21:15.399Z,103230.84
2023-02-11T22:26:19.250Z,103234.19
2023-02-11T22:31:24.199Z,103229.50
2023-02-11T22:36:31.264Z,103246.69
2023-02-11T22:41:33.743Z,103249.19
2023-02-11T22:46:35.777Z,103254.31
2023-02-11T22:51:38.962Z,103251.97
2023-02-11T22:56:40.756Z,103243.03
2023-02-11T23:01:42.422Z,103254.50
2023-02-11T23:06:43.996Z,103270.94
2023-02-11T23:11:46.877Z,103271.06
2023-02-11T23:16:50.718Z,103275.44
2023-02-11T23:21:53.085Z,103270.84
2023-02-11T23:26:54.664Z,103279.22
2023-02-11T23:31:58.733Z,103278.66
2023-02-11T23:37:00.801Z,103288.72
2023-02-11T23:42:02.391Z,103274.53
2023-02-11T23:47:04.276Z,103285.84
2023-02-11T23:52:05.876Z,103262.13
2023-02-11T23:57:07.470Z,103257.69
